Terminal Aerodrome Forecast
Issued by NWS

Home | Current Version | Previous Version | Text Only | Print | Product List | Glossary On
Versions: 1 2 3 4 5 6 7 8 9 10 11 12 13 14 15 16 17 18 19 20 21 22 23 24 25 26 27 28 29 30 31 32 33
361
FTUS45 KVEF 221434 AAA
TAFLAS
TAF AMD
KLAS 221434Z 2215/2312 16012KT P6SM SCT140 BKN200
     FM221900 16012G18KT P6SM VCSH SCT080 BKN140
     FM222100 22012G18KT P6SM VCSH BKN080 BKN140
     FM230400 20008KT P6SM SCT080 BKN140=

USA.gov is the U.S. government's official web portal to all federal, state and local government web resources and services.